Camellia — VRCP9 — position and weather

sailwx.info

Track history (hours):
 
Tides and Currents Weather Stations Pressure Air Temp Water Temp Dewpoint Dewpoint Depression Visibility Wind Speed Wind Dir Waves Ship Positions

Camellia

Last reported at 2017-Dec-11 03:12 UTC. Time now 2017-Dec-11 07:53 UTC.
Position N 37°58' W 009°51'.

Length 222 m; draft 7.6 m.

MMSI: 477791900.

Date/timePositionNaut miles runAvg speedWind from/ knotsBaromVisibWave heightAir tempDewpointWater temp
2017-Dec-11 03:12N 37°58' W 009°51'517.9
2017-Dec-11 02:56N 38°03' W 009°52'818.3
2017-Dec-11 02:28N 38°12' W 009°53'917.1
2017-Dec-11 01:59N 38°20' W 009°53'918.3
2017-Dec-11 01:30N 38°28' W 009°57'918.3
2017-Dec-11 01:01N 38°36' W 010°02'816.0
2017-Dec-11 00:30N 38°44' W 010°06'816.2
2017-Dec-11 00:00N 38°52' W 010°06'916.9
2017-Dec-10 23:30N 39°00' W 010°05'817.1
2017-Dec-10 23:00N 39°09' W 010°05'815.4
2017-Dec-10 22:30N 39°16' W 010°06'714.8
2017-Dec-10 22:00N 39°24' W 010°06'66915.5
2017-Dec-09 02:44N 49°38' W 003°51'817.7
2017-Dec-09 02:18N 49°41' W 003°41'517.7
2017-Dec-09 02:00N 49°44' W 003°34'917.5
2017-Dec-09 01:31N 49°48' W 003°22'816.6
2017-Dec-09 01:00N 49°52' W 003°11'816.1
2017-Dec-09 00:31N 49°56' W 003°00'815.3
2017-Dec-09 00:00N 49°59' W 002°50'714.8
2017-Dec-08 23:30N 50°02' W 002°39'814.5
2017-Dec-08 22:58N 50°05' W 002°28'713.9
2017-Dec-08 22:27N 50°07' W 002°17'3515.3
2017-Dec-08 20:09N 50°15' W 001°24'517.3
2017-Dec-08 19:52N 50°17' W 001°16'918.1
2017-Dec-08 19:23N 50°19' W 001°03'718.8
2017-Dec-08 19:00N 50°22' W 000°53'2618.2
2017-Dec-08 17:35N 50°28' W 000°13'217.8
2017-Dec-08 17:29N 50°29' W 000°10'1017.6
2017-Dec-08 16:55N 50°31' E 000°05'717.3
2017-Dec-08 16:30N 50°33' E 000°16'917.3
2017-Dec-08 16:00N 50°35' E 000°28'816.9
2017-Dec-08 15:30N 50°40' E 000°40'816.7
2017-Dec-08 15:00N 50°45' E 000°51'816.4
2017-Dec-08 14:30N 50°49' E 001°01'816.2
2017-Dec-08 14:00N 50°55' E 001°11'816.1
2017-Dec-08 13:30N 51°00' E 001°20'917.2
2017-Dec-08 13:00N 51°05' E 001°31'918.2
2017-Dec-08 12:30N 51°11' E 001°42'1019.3
2017-Dec-08 12:01N 51°19' E 001°51'816.3
2017-Dec-08 11:31N 51°24' E 002°01'816.1
2017-Dec-08 10:59N 51°21' E 002°13'816.9
2017-Dec-08 10:31N 51°22' E 002°26'913.8
2017-Dec-08 09:52N 51°23' E 002°40'4 9.6
2017-Dec-08 09:29N 51°24' E 002°46'715.2
2017-Dec-08 09:01N 51°25' E 002°57'918.8
2017-Dec-08 08:31N 51°24' E 003°12'1019.6
2017-Dec-08 08:01N 51°25' E 003°28'510.1
2017-Dec-08 07:30N 51°26' E 003°36'3 5.9
2017-Dec-08 07:00N 51°26' E 003°41'917.2
2017-Dec-08 06:31N 51°21' E 003°51'815.8
2017-Dec-08 06:01N 51°26' E 004°01'612.1
2017-Dec-08 05:30N 51°23' E 004°10'4 8.2
2017-Dec-08 05:00N 51°21' E 004°16'0 0.3
2017-Dec-08 04:30N 51°21' E 004°16'0 0.0
2017-Dec-08 04:01N 51°21' E 004°16'0 0.0
2017-Dec-08 03:30N 51°21' E 004°16'0 0.0
2017-Dec-08 03:01N 51°21' E 004°16'0 0.0
2017-Dec-08 02:30N 51°21' E 004°16'0 0.0
2017-Dec-08 02:01N 51°21' E 004°16'0 0.0
2017-Dec-08 01:31N 51°21' E 004°16'0 0.0
2017-Dec-08 01:01N 51°21' E 004°16'0 0.0
2017-Dec-08 00:29N 51°21' E 004°16'0 0.0
2017-Dec-08 00:00N 51°21' E 004°16'0 0.0
2017-Dec-07 23:30N 51°21' E 004°16'0 0.0
2017-Dec-07 23:00N 51°21' E 004°16'0 0.0
2017-Dec-07 22:30N 51°21' E 004°16'0 0.0
2017-Dec-07 22:01N 51°21' E 004°16'0 0.0
2017-Dec-07 21:31N 51°21' E 004°16'0 0.0
2017-Dec-07 21:01N 51°21' E 004°16'0 0.0
2017-Dec-07 20:31N 51°21' E 004°16'0 0.0
2017-Dec-07 20:01N 51°21' E 004°16'0 0.0
2017-Dec-07 19:29N 51°21' E 004°16'0 0.0
2017-Dec-07 19:01N 51°21' E 004°16'0 0.0
2017-Dec-07 18:30N 51°21' E 004°16'0 0.0
2017-Dec-07 17:58N 51°21' E 004°16'0 0.0
2017-Dec-07 17:28N 51°21' E 004°16'0 0.0
2017-Dec-07 17:00N 51°21' E 004°16'0 0.0
2017-Dec-07 16:31N 51°21' E 004°16'0 0.0
2017-Dec-07 16:01N 51°21' E 004°16'0 0.0
2017-Dec-07 15:29N 51°21' E 004°16'0 0.0
2017-Dec-07 15:01N 51°21' E 004°16'0 0.0
2017-Dec-07 14:30N 51°21' E 004°16'0 0.0
2017-Dec-07 14:00N 51°21' E 004°16'0 0.0
2017-Dec-07 13:29N 51°21' E 004°16'0 0.0
2017-Dec-07 13:01N 51°21' E 004°16'0 0.0
2017-Dec-07 12:30N 51°21' E 004°16'2 3.6
2017-Dec-07 12:01N 51°22' E 004°13'5 9.6
2017-Dec-07 11:30N 51°22' E 004°06'511.0
2017-Dec-07 11:00N 51°25' E 003°58'714.2
2017-Dec-07 10:30N 51°21' E 003°49'713.7
2017-Dec-07 10:01N 51°26' E 003°41'5 9.7
2017-Dec-07 09:31N 51°25' E 003°33'613.0
2017-Dec-07 09:01N 51°24' E 003°23'816.2
2017-Dec-07 08:31N 51°24' E 003°10'713.9
2017-Dec-07 08:01N 51°27' E 002°60'917.2
2017-Dec-07 07:30N 51°34' E 003°08'1115.6
2017-Dec-07 06:48N 51°44' E 003°15'1 3.2
2017-Dec-07 06:26N 51°44' E 003°14'2 4.7
2017-Dec-07 06:00N 51°46' E 003°14'6 1.1
2017-Dec-07 00:53N 51°49' E 003°22'0 0.1
2017-Dec-07 00:29N 51°49' E 003°22'0 0.0
2017-Dec-06 22:20N 51°49' E 003°22'0 0.0
2017-Dec-06 21:14N 51°49' E 003°22'0 0.1
2017-Dec-06 20:56N 51°49' E 003°22'  
2017-Dec-04 10:29N 53°36' E 008°31'0 0.0
2017-Dec-04 09:59N 53°36' E 008°31'0 0.0
2017-Dec-04 09:29N 53°36' E 008°31'0 0.0
2017-Dec-04 08:59N 53°36' E 008°31'0 0.0
2017-Dec-04 08:29N 53°36' E 008°31'0 0.0
2017-Dec-04 07:58N 53°36' E 008°31'0 0.0
2017-Dec-04 07:28N 53°36' E 008°31'0 0.0
2017-Dec-04 06:58N 53°36' E 008°31'0 0.0
2017-Dec-04 06:28N 53°36' E 008°31'0 0.0
2017-Dec-04 05:58N 53°36' E 008°31'0 0.0
2017-Dec-04 05:28N 53°36' E 008°31'0 0.0
2017-Dec-04 04:58N 53°36' E 008°31'0 0.0
2017-Dec-04 04:28N 53°36' E 008°31'0 0.0
2017-Dec-04 03:58N 53°36' E 008°31'0 0.0
2017-Dec-04 03:28N 53°36' E 008°31'0 0.0
2017-Dec-04 02:58N 53°36' E 008°31'0 0.0
2017-Dec-04 02:28N 53°36' E 008°31'0 0.0
2017-Dec-04 01:58N 53°36' E 008°31'0 0.0
2017-Dec-04 01:28N 53°36' E 008°31'0 0.0
2017-Dec-04 00:58N 53°36' E 008°31'0 0.0
2017-Dec-04 00:28N 53°36' E 008°31'0 0.0
2017-Dec-03 23:58N 53°36' E 008°31'0 0.0
2017-Dec-03 23:28N 53°36' E 008°31'0 0.0
2017-Dec-03 22:58N 53°36' E 008°31'0 0.0
2017-Dec-03 22:28N 53°36' E 008°31'0 0.0
2017-Dec-03 21:58N 53°36' E 008°31'0 0.0
2017-Dec-03 21:28N 53°36' E 008°31'0 0.0
2017-Dec-03 20:58N 53°36' E 008°31'0 0.0
2017-Dec-03 20:28N 53°36' E 008°31'0 0.0
2017-Dec-03 19:58N 53°36' E 008°31'0 0.0
2017-Dec-03 19:28N 53°36' E 008°31'0 0.0
2017-Dec-03 18:55N 53°36' E 008°31'0 0.0
2017-Dec-03 18:28N 53°36' E 008°31'0 0.0
2017-Dec-03 17:58N 53°36' E 008°31'0 0.0
2017-Dec-03 17:28N 53°36' E 008°31'0 0.0
2017-Dec-03 16:58N 53°36' E 008°31'2 4.1
2017-Dec-03 16:30N 53°37' E 008°29'510.8
2017-Dec-03 16:00N 53°40' E 008°22'5 9.9
2017-Dec-03 15:30N 53°44' E 008°16'611.9
2017-Dec-03 15:00N 53°48' E 008°09'612.2
2017-Dec-03 14:30N 53°51' E 008°00'712.4
2017-Dec-03 13:54N 53°53' E 007°48'5815.2
2017-Dec-03 10:05N 54°41' E 006°52'417.0
2017-Dec-03 09:53N 54°43' E 006°48'617.1
2017-Dec-03 09:30N 54°49' E 006°41'816.7
2017-Dec-03 09:01N 54°55' E 006°33'  
Track history (hours):
 
Tides and Currents Weather Stations Pressure Air Temp Water Temp Dewpoint Dewpoint Depression Visibility Wind Speed Wind Dir Waves Ship Positions

Camellia

Last reported at 2017-Dec-11 03:12 UTC. Time now 2017-Dec-11 07:53 UTC.
Position N 37°58' W 009°51'.

Length 222 m; draft 7.6 m.

MMSI: 477791900.

Date/timePositionNaut miles runAvg speedWind from/ knotsBaromVisibWave heightAir tempDewpointWater temp
2017-Dec-11 03:12N 37°58' W 009°51'517.9
2017-Dec-11 02:56N 38°03' W 009°52'818.3
2017-Dec-11 02:28N 38°12' W 009°53'917.1
2017-Dec-11 01:59N 38°20' W 009°53'918.3
2017-Dec-11 01:30N 38°28' W 009°57'918.3
2017-Dec-11 01:01N 38°36' W 010°02'816.0
2017-Dec-11 00:30N 38°44' W 010°06'816.2
2017-Dec-11 00:00N 38°52' W 010°06'916.9
2017-Dec-10 23:30N 39°00' W 010°05'817.1
2017-Dec-10 23:00N 39°09' W 010°05'815.4
2017-Dec-10 22:30N 39°16' W 010°06'714.8
2017-Dec-10 22:00N 39°24' W 010°06'66915.5
2017-Dec-09 02:44N 49°38' W 003°51'817.7
2017-Dec-09 02:18N 49°41' W 003°41'517.7
2017-Dec-09 02:00N 49°44' W 003°34'917.5
2017-Dec-09 01:31N 49°48' W 003°22'816.6
2017-Dec-09 01:00N 49°52' W 003°11'816.1
2017-Dec-09 00:31N 49°56' W 003°00'815.3
2017-Dec-09 00:00N 49°59' W 002°50'714.8
2017-Dec-08 23:30N 50°02' W 002°39'814.5
2017-Dec-08 22:58N 50°05' W 002°28'713.9
2017-Dec-08 22:27N 50°07' W 002°17'3515.3
2017-Dec-08 20:09N 50°15' W 001°24'517.3
2017-Dec-08 19:52N 50°17' W 001°16'918.1
2017-Dec-08 19:23N 50°19' W 001°03'718.8
2017-Dec-08 19:00N 50°22' W 000°53'2618.2
2017-Dec-08 17:35N 50°28' W 000°13'217.8
2017-Dec-08 17:29N 50°29' W 000°10'1017.6
2017-Dec-08 16:55N 50°31' E 000°05'717.3
2017-Dec-08 16:30N 50°33' E 000°16'917.3
2017-Dec-08 16:00N 50°35' E 000°28'816.9
2017-Dec-08 15:30N 50°40' E 000°40'816.7
2017-Dec-08 15:00N 50°45' E 000°51'816.4
2017-Dec-08 14:30N 50°49' E 001°01'816.2
2017-Dec-08 14:00N 50°55' E 001°11'816.1
2017-Dec-08 13:30N 51°00' E 001°20'917.2
2017-Dec-08 13:00N 51°05' E 001°31'918.2
2017-Dec-08 12:30N 51°11' E 001°42'1019.3
2017-Dec-08 12:01N 51°19' E 001°51'816.3
2017-Dec-08 11:31N 51°24' E 002°01'816.1
2017-Dec-08 10:59N 51°21' E 002°13'816.9
2017-Dec-08 10:31N 51°22' E 002°26'913.8
2017-Dec-08 09:52N 51°23' E 002°40'4 9.6
2017-Dec-08 09:29N 51°24' E 002°46'715.2
2017-Dec-08 09:01N 51°25' E 002°57'918.8
2017-Dec-08 08:31N 51°24' E 003°12'1019.6
2017-Dec-08 08:01N 51°25' E 003°28'510.1
2017-Dec-08 07:30N 51°26' E 003°36'3 5.9
2017-Dec-08 07:00N 51°26' E 003°41'917.2
2017-Dec-08 06:31N 51°21' E 003°51'815.8
2017-Dec-08 06:01N 51°26' E 004°01'612.1
2017-Dec-08 05:30N 51°23' E 004°10'4 8.2
2017-Dec-08 05:00N 51°21' E 004°16'0 0.3
2017-Dec-08 04:30N 51°21' E 004°16'0 0.0
2017-Dec-08 04:01N 51°21' E 004°16'0 0.0
2017-Dec-08 03:30N 51°21' E 004°16'0 0.0
2017-Dec-08 03:01N 51°21' E 004°16'0 0.0
2017-Dec-08 02:30N 51°21' E 004°16'0 0.0
2017-Dec-08 02:01N 51°21' E 004°16'0 0.0
2017-Dec-08 01:31N 51°21' E 004°16'0 0.0
2017-Dec-08 01:01N 51°21' E 004°16'0 0.0
2017-Dec-08 00:29N 51°21' E 004°16'0 0.0
2017-Dec-08 00:00N 51°21' E 004°16'0 0.0
2017-Dec-07 23:30N 51°21' E 004°16'0 0.0
2017-Dec-07 23:00N 51°21' E 004°16'0 0.0
2017-Dec-07 22:30N 51°21' E 004°16'0 0.0
2017-Dec-07 22:01N 51°21' E 004°16'0 0.0
2017-Dec-07 21:31N 51°21' E 004°16'0 0.0
2017-Dec-07 21:01N 51°21' E 004°16'0 0.0
2017-Dec-07 20:31N 51°21' E 004°16'0 0.0
2017-Dec-07 20:01N 51°21' E 004°16'0 0.0
2017-Dec-07 19:29N 51°21' E 004°16'0 0.0
2017-Dec-07 19:01N 51°21' E 004°16'0 0.0
2017-Dec-07 18:30N 51°21' E 004°16'0 0.0
2017-Dec-07 17:58N 51°21' E 004°16'0 0.0
2017-Dec-07 17:28N 51°21' E 004°16'0 0.0
2017-Dec-07 17:00N 51°21' E 004°16'0 0.0
2017-Dec-07 16:31N 51°21' E 004°16'0 0.0
2017-Dec-07 16:01N 51°21' E 004°16'0 0.0
2017-Dec-07 15:29N 51°21' E 004°16'0 0.0
2017-Dec-07 15:01N 51°21' E 004°16'0 0.0
2017-Dec-07 14:30N 51°21' E 004°16'0 0.0
2017-Dec-07 14:00N 51°21' E 004°16'0 0.0
2017-Dec-07 13:29N 51°21' E 004°16'0 0.0
2017-Dec-07 13:01N 51°21' E 004°16'0 0.0
2017-Dec-07 12:30N 51°21' E 004°16'2 3.6
2017-Dec-07 12:01N 51°22' E 004°13'5 9.6
2017-Dec-07 11:30N 51°22' E 004°06'511.0
2017-Dec-07 11:00N 51°25' E 003°58'714.2
2017-Dec-07 10:30N 51°21' E 003°49'713.7
2017-Dec-07 10:01N 51°26' E 003°41'5 9.7
2017-Dec-07 09:31N 51°25' E 003°33'613.0
2017-Dec-07 09:01N 51°24' E 003°23'816.2
2017-Dec-07 08:31N 51°24' E 003°10'713.9
2017-Dec-07 08:01N 51°27' E 002°60'917.2
2017-Dec-07 07:30N 51°34' E 003°08'1115.6
2017-Dec-07 06:48N 51°44' E 003°15'1 3.2
2017-Dec-07 06:26N 51°44' E 003°14'2 4.7
2017-Dec-07 06:00N 51°46' E 003°14'6 1.1
2017-Dec-07 00:53N 51°49' E 003°22'0 0.1
2017-Dec-07 00:29N 51°49' E 003°22'0 0.0
2017-Dec-06 22:20N 51°49' E 003°22'0 0.0
2017-Dec-06 21:14N 51°49' E 003°22'0 0.1
2017-Dec-06 20:56N 51°49' E 003°22'  
2017-Dec-04 10:29N 53°36' E 008°31'0 0.0
2017-Dec-04 09:59N 53°36' E 008°31'0 0.0
2017-Dec-04 09:29N 53°36' E 008°31'0 0.0
2017-Dec-04 08:59N 53°36' E 008°31'0 0.0
2017-Dec-04 08:29N 53°36' E 008°31'0 0.0
2017-Dec-04 07:58N 53°36' E 008°31'0 0.0
2017-Dec-04 07:28N 53°36' E 008°31'0 0.0
2017-Dec-04 06:58N 53°36' E 008°31'0 0.0
2017-Dec-04 06:28N 53°36' E 008°31'0 0.0
2017-Dec-04 05:58N 53°36' E 008°31'0 0.0
2017-Dec-04 05:28N 53°36' E 008°31'0 0.0
2017-Dec-04 04:58N 53°36' E 008°31'0 0.0
2017-Dec-04 04:28N 53°36' E 008°31'0 0.0
2017-Dec-04 03:58N 53°36' E 008°31'0 0.0
2017-Dec-04 03:28N 53°36' E 008°31'0 0.0
2017-Dec-04 02:58N 53°36' E 008°31'0 0.0
2017-Dec-04 02:28N 53°36' E 008°31'0 0.0
2017-Dec-04 01:58N 53°36' E 008°31'0 0.0
2017-Dec-04 01:28N 53°36' E 008°31'0 0.0
2017-Dec-04 00:58N 53°36' E 008°31'0 0.0
2017-Dec-04 00:28N 53°36' E 008°31'0 0.0
2017-Dec-03 23:58N 53°36' E 008°31'0 0.0
2017-Dec-03 23:28N 53°36' E 008°31'0 0.0
2017-Dec-03 22:58N 53°36' E 008°31'0 0.0
2017-Dec-03 22:28N 53°36' E 008°31'0 0.0
2017-Dec-03 21:58N 53°36' E 008°31'0 0.0
2017-Dec-03 21:28N 53°36' E 008°31'0 0.0
2017-Dec-03 20:58N 53°36' E 008°31'0 0.0
2017-Dec-03 20:28N 53°36' E 008°31'0 0.0
2017-Dec-03 19:58N 53°36' E 008°31'0 0.0
2017-Dec-03 19:28N 53°36' E 008°31'0 0.0
2017-Dec-03 18:55N 53°36' E 008°31'0 0.0
2017-Dec-03 18:28N 53°36' E 008°31'0 0.0
2017-Dec-03 17:58N 53°36' E 008°31'0 0.0
2017-Dec-03 17:28N 53°36' E 008°31'0 0.0
2017-Dec-03 16:58N 53°36' E 008°31'2 4.1
2017-Dec-03 16:30N 53°37' E 008°29'510.8
2017-Dec-03 16:00N 53°40' E 008°22'5 9.9
2017-Dec-03 15:30N 53°44' E 008°16'611.9
2017-Dec-03 15:00N 53°48' E 008°09'612.2
2017-Dec-03 14:30N 53°51' E 008°00'712.4
2017-Dec-03 13:54N 53°53' E 007°48'5815.2
2017-Dec-03 10:05N 54°41' E 006°52'417.0
2017-Dec-03 09:53N 54°43' E 006°48'617.1
2017-Dec-03 09:30N 54°49' E 006°41'816.7
2017-Dec-03 09:01N 54°55' E 006°33'  

Dump ship's entire track history